Laredas de San Juan, Puerto Rico
Current Conditions -  °F | °C
As of 1:56 AM on Thursday 18 Dec 2014 (Local Time) from TJSJ Reporting Station
Scattered Clouds Scattered Clouds  
Wind Chill: 77°   Ceiling: Unl
Heat Index: 79°   Visibility: 10mi
Dew Point: 67°   Wind: 12mph
Humidity: 71%   Direction: 40°NE
Pressure: 30.01"   Gusts: 18mph
Location:  18.3754°N, 66.0577°W
Report Text: TJSJ 180556Z 04010G16KT 10SM FEW026 SCT080 25/19 A3001 RMK AO2 SLP161 T02500194 10261 20250 56014
Loading
Personal Weather Stations






























Interactive Weather Map New forecast layout! Learn more

10-Day Weather Forecast

Advertisements
Track Severe Weather on mobile